createdAt,value
2023-02-13T00:01:31.446Z,7.62
2023-02-13T00:04:03.156Z,7.65
2023-02-13T00:06:34.725Z,7.59
2023-02-13T00:09:07.413Z,7.59
2023-02-13T00:11:39.016Z,7.58
2023-02-13T00:14:10.721Z,7.52
2023-02-13T00:16:42.260Z,7.50
2023-02-13T00:19:13.838Z,7.53
2023-02-13T00:21:45.360Z,7.47
2023-02-13T00:24:16.905Z,7.41
2023-02-13T00:26:48.399Z,7.36
2023-02-13T00:29:19.979Z,7.35
2023-02-13T00:31:51.705Z,7.38
2023-02-13T00:34:23.261Z,7.38
2023-02-13T00:36:54.781Z,7.45
2023-02-13T00:39:26.749Z,7.40
2023-02-13T00:41:58.281Z,7.38
2023-02-13T00:44:30.160Z,7.39
2023-02-13T00:47:01.731Z,7.46
2023-02-13T00:49:33.775Z,7.43
2023-02-13T00:52:05.294Z,7.42
2023-02-13T00:54:37.324Z,7.39
2023-02-13T00:57:08.867Z,7.31
2023-02-13T00:59:40.652Z,7.30
2023-02-13T01:02:12.194Z,7.26
2023-02-13T01:04:44.037Z,7.20
2023-02-13T01:07:16.674Z,7.15
2023-02-13T01:09:48.480Z,7.24
2023-02-13T01:12:20.008Z,7.23
2023-02-13T01:14:52.853Z,7.24
2023-02-13T01:17:24.358Z,7.25
2023-02-13T01:19:56.306Z,7.23
2023-02-13T01:22:27.876Z,7.28
2023-02-13T01:24:59.625Z,7.31
2023-02-13T01:27:31.841Z,7.31
2023-02-13T01:30:03.829Z,7.24
2023-02-13T01:32:35.397Z,7.29
2023-02-13T01:35:07.424Z,7.29
2023-02-13T01:37:39.490Z,7.34
2023-02-13T01:40:11.405Z,7.34
2023-02-13T01:42:42.977Z,7.35
2023-02-13T01:45:14.542Z,7.26
2023-02-13T01:47:46.060Z,7.29
2023-02-13T01:50:17.588Z,7.25
2023-02-13T01:52:49.094Z,7.26
2023-02-13T01:55:20.617Z,7.25
2023-02-13T01:57:52.237Z,7.29
2023-02-13T02:00:24.213Z,7.26
2023-02-13T02:02:55.771Z,7.26
2023-02-13T02:05:27.715Z,7.25
2023-02-13T02:07:59.246Z,7.29
2023-02-13T02:10:32.862Z,7.26
2023-02-13T02:13:04.399Z,7.22
2023-02-13T02:15:35.920Z,7.22
2023-02-13T02:18:07.777Z,5.60
2023-02-13T02:20:39.293Z,7.26
2023-02-13T02:23:11.181Z,7.20
2023-02-13T02:25:42.705Z,7.13
2023-02-13T02:28:14.255Z,7.06
2023-02-13T02:30:45.869Z,7.00
2023-02-13T02:33:17.448Z,7.04
2023-02-13T02:35:48.958Z,7.00
2023-02-13T02:38:20.493Z,6.97
2023-02-13T02:40:52.024Z,7.06
2023-02-13T02:43:23.912Z,7.02
2023-02-13T02:45:55.432Z,7.05
2023-02-13T02:48:46.117Z,6.99
2023-02-13T02:51:17.618Z,6.98
2023-02-13T02:53:49.429Z,7.04
2023-02-13T02:56:20.928Z,7.05
2023-02-13T02:59:11.443Z,7.03
2023-02-13T03:02:01.610Z,6.98
2023-02-13T03:04:52.014Z,7.00
2023-02-13T03:07:23.526Z,6.95
2023-02-13T03:10:13.740Z,6.95
2023-02-13T03:13:04.025Z,6.94
2023-02-13T03:15:35.850Z,6.95
2023-02-13T03:18:26.468Z,7.01
2023-02-13T03:21:16.640Z,6.98
2023-02-13T03:23:48.491Z,6.97
2023-02-13T03:26:19.966Z,6.94
2023-02-13T03:29:10.258Z,6.98
2023-02-13T03:31:41.773Z,6.90
2023-02-13T03:34:13.650Z,6.92
2023-02-13T03:37:04.055Z,6.87
2023-02-13T03:39:35.901Z,6.90
2023-02-13T03:42:07.381Z,6.87
2023-02-13T03:44:39.254Z,6.80
2023-02-13T03:47:10.765Z,6.80
2023-02-13T03:50:01.323Z,6.83
2023-02-13T03:52:32.819Z,6.84
2023-02-13T03:55:23.348Z,6.82
2023-02-13T03:58:13.544Z,6.76
2023-02-13T04:00:45.372Z,6.79
2023-02-13T04:03:16.900Z,6.75
2023-02-13T04:05:48.729Z,6.81
2023-02-13T04:08:20.227Z,6.72
2023-02-13T04:10:52.137Z,6.79
2023-02-13T04:13:23.617Z,6.80
2023-02-13T04:15:55.567Z,6.72
2023-02-13T04:18:27.058Z,6.69
2023-02-13T04:20:58.941Z,6.74
2023-02-13T04:23:30.732Z,6.73
2023-02-13T04:26:02.685Z,6.82
2023-02-13T04:28:34.252Z,6.84
2023-02-13T04:31:06.399Z,6.88
2023-02-13T04:33:38.062Z,6.89
2023-02-13T04:36:09.585Z,6.78
2023-02-13T04:38:41.056Z,6.79
2023-02-13T04:41:12.863Z,6.81
2023-02-13T04:43:44.473Z,6.85
2023-02-13T04:46:15.993Z,6.84
2023-02-13T04:48:47.475Z,6.83
2023-02-13T04:51:19.005Z,6.77
2023-02-13T04:53:50.484Z,6.74
2023-02-13T04:56:22.274Z,6.80
2023-02-13T04:58:53.754Z,6.84
2023-02-13T05:01:25.674Z,6.84
2023-02-13T05:03:57.545Z,6.85
2023-02-13T05:06:29.039Z,6.80
2023-02-13T05:09:00.741Z,6.73
2023-02-13T05:11:32.240Z,6.83
2023-02-13T05:14:04.104Z,6.79
2023-02-13T05:16:35.744Z,6.82
2023-02-13T05:19:07.505Z,6.85
2023-02-13T05:21:57.979Z,6.88
2023-02-13T05:24:29.854Z,6.94
2023-02-13T05:27:01.415Z,6.90
2023-02-13T05:29:32.956Z,6.85
2023-02-13T05:32:04.558Z,6.87
2023-02-13T05:34:36.461Z,6.80
2023-02-13T05:37:07.960Z,6.82
2023-02-13T05:39:39.500Z,6.88
2023-02-13T05:42:11.037Z,6.87
2023-02-13T05:44:42.935Z,6.87
2023-02-13T05:47:14.481Z,6.93
2023-02-13T05:49:46.006Z,6.90
2023-02-13T05:52:17.503Z,6.83
2023-02-13T05:54:49.433Z,6.85
2023-02-13T05:57:20.906Z,6.81
2023-02-13T05:59:52.764Z,6.77
2023-02-13T06:02:24.317Z,6.73
2023-02-13T06:04:56.178Z,6.73
2023-02-13T06:07:27.699Z,6.71
2023-02-13T06:09:59.819Z,6.74
2023-02-13T06:12:31.281Z,6.76
2023-02-13T06:15:03.118Z,6.77
2023-02-13T06:17:34.622Z,6.76
2023-02-13T06:20:06.417Z,6.83
2023-02-13T06:22:37.892Z,6.74
2023-02-13T06:25:09.774Z,6.70
2023-02-13T06:27:41.266Z,6.69
2023-02-13T06:30:13.048Z,6.72
2023-02-13T06:32:44.565Z,6.68
2023-02-13T06:35:16.088Z,6.62
2023-02-13T06:37:48.666Z,6.62
2023-02-13T06:40:20.267Z,6.67
2023-02-13T06:42:51.739Z,6.72
2023-02-13T06:45:23.244Z,6.61
2023-02-13T06:47:54.767Z,6.59
2023-02-13T06:50:26.822Z,6.54
2023-02-13T06:52:58.354Z,6.59
2023-02-13T06:55:29.908Z,6.61
2023-02-13T06:58:01.374Z,6.55
2023-02-13T07:00:33.006Z,6.63
2023-02-13T07:03:04.680Z,6.63
2023-02-13T07:05:36.236Z,6.67
2023-02-13T07:08:07.755Z,6.50
2023-02-13T07:10:39.323Z,6.59
2023-02-13T07:13:11.060Z,6.61
2023-02-13T07:15:42.664Z,6.57
2023-02-13T07:18:14.159Z,6.57
2023-02-13T07:20:46.041Z,6.74
2023-02-13T07:23:17.533Z,6.72
2023-02-13T07:25:49.350Z,6.74
2023-02-13T07:28:20.849Z,6.62
2023-02-13T07:30:52.434Z,6.73
2023-02-13T07:33:27.821Z,6.72
2023-02-13T07:35:59.321Z,6.74
2023-02-13T07:38:30.830Z,6.79
2023-02-13T07:41:02.337Z,6.89
2023-02-13T07:43:33.802Z,6.93
2023-02-13T07:46:05.743Z,6.93
2023-02-13T07:48:37.247Z,6.92
2023-02-13T07:51:08.736Z,6.89
2023-02-13T07:53:40.233Z,6.88
2023-02-13T07:59:08.652Z,7.02
2023-02-13T08:07:52.267Z,7.12
2023-02-13T08:10:43.186Z,7.22
2023-02-13T08:13:17.372Z,7.24
2023-02-13T08:16:04.040Z,7.19
2023-02-13T08:18:35.627Z,7.15
2023-02-13T08:27:26.979Z,7.39
2023-02-13T08:39:28.986Z,7.50
2023-02-13T08:42:04.901Z,7.34
2023-02-13T08:44:37.371Z,7.44
2023-02-13T08:47:14.194Z,7.39
2023-02-13T08:49:48.891Z,7.37
2023-02-13T08:55:38.202Z,7.60
2023-02-13T09:04:36.783Z,7.72
2023-02-13T09:07:11.265Z,7.00
2023-02-13T09:10:10.517Z,7.66
2023-02-13T09:19:35.320Z,7.22
2023-02-13T09:22:24.028Z,7.63
2023-02-13T09:31:04.746Z,7.70
2023-02-13T09:33:51.952Z,7.91
2023-02-13T09:36:30.898Z,7.83
2023-02-13T09:39:13.585Z,7.98
2023-02-13T09:45:24.809Z,8.34
2023-02-13T09:47:56.318Z,8.42
2023-02-13T09:50:27.978Z,8.26
2023-02-13T09:52:59.596Z,8.30
2023-02-13T09:55:31.120Z,8.34
2023-02-13T09:58:02.643Z,8.38
2023-02-13T10:00:34.186Z,8.04
2023-02-13T10:03:05.679Z,8.36
2023-02-13T10:05:37.535Z,8.33
2023-02-13T10:08:09.160Z,8.56
2023-02-13T10:10:40.666Z,8.38
2023-02-13T10:13:12.161Z,8.28
2023-02-13T10:15:43.707Z,8.16
2023-02-13T10:18:15.218Z,8.24
2023-02-13T10:20:47.121Z,8.26
2023-02-13T10:23:18.649Z,8.41
2023-02-13T10:25:50.216Z,7.84
2023-02-13T10:28:21.761Z,8.83
2023-02-13T10:30:53.546Z,9.07
2023-02-13T10:33:25.163Z,9.09
2023-02-13T10:35:56.929Z,9.27
2023-02-13T10:38:28.567Z,9.43
2023-02-13T10:41:00.117Z,9.31
2023-02-13T10:43:31.638Z,9.56
2023-02-13T10:46:03.346Z,9.69
2023-02-13T10:48:34.967Z,9.62
2023-02-13T10:51:06.803Z,9.70
2023-02-13T10:53:38.305Z,9.53
2023-02-13T10:56:10.094Z,9.78
2023-02-13T10:58:41.657Z,9.55
2023-02-13T11:01:13.191Z,9.35
2023-02-13T11:03:47.843Z,9.28
2023-02-13T11:06:20.215Z,9.20
2023-02-13T11:08:51.715Z,8.99
2023-02-13T11:11:23.217Z,8.83
2023-02-13T11:13:54.706Z,8.57
2023-02-13T11:16:26.540Z,8.49
2023-02-13T11:18:58.064Z,8.62
2023-02-13T11:21:29.922Z,8.69
2023-02-13T11:24:01.402Z,8.47
2023-02-13T11:26:33.545Z,8.62
2023-02-13T11:29:05.106Z,8.82
2023-02-13T11:31:37.314Z,8.60
2023-02-13T11:34:08.924Z,8.88
2023-02-13T11:36:40.761Z,9.01
2023-02-13T11:39:12.266Z,9.12
2023-02-13T11:41:43.772Z,8.82
2023-02-13T11:44:15.267Z,8.84
2023-02-13T11:46:46.898Z,8.75
2023-02-13T11:49:18.415Z,8.76
2023-02-13T11:51:50.421Z,8.80
2023-02-13T11:54:21.899Z,8.89
2023-02-13T11:57:08.560Z,8.83
2023-02-13T11:59:40.142Z,8.88
2023-02-13T12:02:11.762Z,8.88
2023-02-13T12:07:35.270Z,8.91
2023-02-13T12:10:06.767Z,8.85
2023-02-13T12:12:38.842Z,8.99
2023-02-13T12:15:10.350Z,9.04
2023-02-13T12:17:42.157Z,9.24
2023-02-13T12:20:14.488Z,9.34
2023-02-13T12:22:46.421Z,9.28
2023-02-13T12:25:17.907Z,9.34
2023-02-13T12:27:49.884Z,9.32
2023-02-13T12:30:21.717Z,9.55
2023-02-13T12:32:53.319Z,9.23
2023-02-13T12:38:34.619Z,9.19
2023-02-13T12:41:06.123Z,9.21
2023-02-13T12:43:37.596Z,9.19
2023-02-13T12:46:09.457Z,8.98
2023-02-13T12:48:40.987Z,9.01
2023-02-13T12:51:12.482Z,9.20
2023-02-13T12:53:43.966Z,9.26
2023-02-13T12:56:15.475Z,9.24
2023-02-13T12:58:47.032Z,9.20
2023-02-13T13:01:18.708Z,9.05
2023-02-13T13:03:50.256Z,9.21
2023-02-13T13:06:22.593Z,9.11
2023-02-13T13:08:54.108Z,9.15
2023-02-13T13:11:25.661Z,9.34
2023-02-13T13:13:58.892Z,9.50
2023-02-13T13:16:30.740Z,9.56
2023-02-13T13:19:02.325Z,9.60
2023-02-13T13:21:34.126Z,9.43
2023-02-13T13:24:05.609Z,9.18
2023-02-13T13:26:37.580Z,9.09
2023-02-13T13:29:09.124Z,8.95
2023-02-13T13:31:40.812Z,8.84
2023-02-13T13:34:12.452Z,8.75
2023-02-13T13:36:43.955Z,8.99
2023-02-13T13:39:15.452Z,9.01
2023-02-13T13:41:47.305Z,9.14
2023-02-13T13:44:18.845Z,9.14
2023-02-13T13:46:50.832Z,9.15
2023-02-13T13:49:22.310Z,9.07
2023-02-13T13:51:54.358Z,9.15
2023-02-13T13:54:25.864Z,8.98
2023-02-13T13:57:01.928Z,8.83
2023-02-13T13:59:33.473Z,8.68
2023-02-13T14:02:05.056Z,8.86
2023-02-13T14:04:36.711Z,8.55
2023-02-13T14:07:08.337Z,8.62
2023-02-13T14:09:39.868Z,8.58
2023-02-13T14:12:11.392Z,8.68
2023-02-13T14:14:42.896Z,8.69
2023-02-13T14:17:14.465Z,8.71
2023-02-13T14:19:45.954Z,8.77
2023-02-13T14:22:17.441Z,8.68
2023-02-13T14:24:48.974Z,8.71
2023-02-13T14:27:20.592Z,8.65
2023-02-13T14:29:52.096Z,8.58
2023-02-13T14:32:23.633Z,8.69
2023-02-13T14:34:55.176Z,8.70
2023-02-13T14:37:34.904Z,8.62
2023-02-13T14:40:06.385Z,8.60
2023-02-13T14:42:38.195Z,8.48
2023-02-13T14:45:09.717Z,8.38
2023-02-13T14:47:42.997Z,8.34
2023-02-13T14:50:14.500Z,8.27
2023-02-13T14:52:46.290Z,8.27
2023-02-13T14:55:17.806Z,8.30
2023-02-13T14:57:49.318Z,8.13
2023-02-13T15:00:20.844Z,8.28
2023-02-13T15:02:52.368Z,8.22
2023-02-13T15:05:23.849Z,8.10
2023-02-13T15:07:55.428Z,8.10
2023-02-13T15:10:27.167Z,8.14
2023-02-13T15:12:59.041Z,8.08
2023-02-13T15:15:30.901Z,8.12
2023-02-13T15:18:02.766Z,8.12
2023-02-13T15:20:34.256Z,8.15
2023-02-13T15:23:09.891Z,8.09
2023-02-13T15:25:41.364Z,7.96
2023-02-13T15:28:12.871Z,7.91
2023-02-13T15:30:44.360Z,7.80
2023-02-13T15:33:15.881Z,7.83
2023-02-13T15:35:47.424Z,7.85
2023-02-13T15:38:18.975Z,7.94
2023-02-13T15:40:50.517Z,7.79
2023-02-13T15:43:22.521Z,7.88
2023-02-13T15:45:54.059Z,7.89
2023-02-13T15:48:25.714Z,7.86
2023-02-13T15:50:57.443Z,7.83
2023-02-13T15:53:30.302Z,7.64
2023-02-13T15:56:01.839Z,7.76
2023-02-13T15:58:33.510Z,7.74
2023-02-13T16:01:05.116Z,7.75
2023-02-13T16:03:36.961Z,7.75
2023-02-13T16:06:08.453Z,7.67
2023-02-13T16:08:44.228Z,7.70
2023-02-13T16:11:15.784Z,7.64
2023-02-13T16:13:48.576Z,7.74
2023-02-13T16:16:20.262Z,7.74
2023-02-13T16:18:52.029Z,7.68
2023-02-13T16:21:23.573Z,7.70
2023-02-13T16:23:55.048Z,7.64
2023-02-13T16:26:26.557Z,7.64
2023-02-13T16:28:58.354Z,7.74
2023-02-13T16:31:29.928Z,7.67
2023-02-13T16:34:02.727Z,7.64
2023-02-13T16:36:34.282Z,7.63
2023-02-13T16:39:06.059Z,7.62
2023-02-13T16:41:37.547Z,7.61
2023-02-13T16:44:09.378Z,7.61
2023-02-13T16:46:40.901Z,7.67
2023-02-13T16:49:12.591Z,7.67
2023-02-13T16:51:44.143Z,7.51
2023-02-13T16:54:15.707Z,7.57
2023-02-13T16:56:47.243Z,7.39
2023-02-13T16:59:19.915Z,7.43
2023-02-13T17:01:51.469Z,7.42
2023-02-13T17:04:23.431Z,7.37
2023-02-13T17:06:55.224Z,7.45
2023-02-13T17:09:27.073Z,7.40
2023-02-13T17:11:58.618Z,7.41
2023-02-13T17:14:30.391Z,7.38
2023-02-13T17:17:01.903Z,7.41
2023-02-13T17:19:33.602Z,7.43
2023-02-13T17:22:05.446Z,7.43
2023-02-13T17:24:37.419Z,7.46
2023-02-13T17:27:08.973Z,7.50
2023-02-13T17:29:40.903Z,7.46
2023-02-13T17:32:12.591Z,7.41
2023-02-13T17:34:46.834Z,7.47
2023-02-13T17:37:18.650Z,7.48
2023-02-13T17:39:50.204Z,7.48
2023-02-13T17:42:21.725Z,7.50
2023-02-13T17:44:53.205Z,7.50
2023-02-13T17:50:17.651Z,7.38
2023-02-13T17:52:49.959Z,7.39
2023-02-13T17:55:21.553Z,7.39
2023-02-13T17:57:53.384Z,7.44
2023-02-13T18:00:24.862Z,7.42
2023-02-13T18:02:56.631Z,7.41
2023-02-13T18:05:28.250Z,7.39
2023-02-13T18:08:02.209Z,7.38
2023-02-13T18:10:33.693Z,7.40
2023-02-13T18:13:05.660Z,7.39
2023-02-13T18:15:37.209Z,7.33
2023-02-13T18:18:09.207Z,7.25
2023-02-13T18:20:40.766Z,7.26
2023-02-13T18:23:13.874Z,7.25
2023-02-13T18:25:45.461Z,7.27
2023-02-13T18:28:16.943Z,7.26
2023-02-13T18:30:48.580Z,7.29
2023-02-13T18:33:20.120Z,7.31
2023-02-13T18:35:51.684Z,7.24
2023-02-13T18:38:23.521Z,7.25
2023-02-13T18:40:55.038Z,7.21
2023-02-13T18:43:26.727Z,7.17
2023-02-13T18:45:58.272Z,7.18
2023-02-13T18:48:31.327Z,7.15
2023-02-13T18:51:02.860Z,7.12
2023-02-13T18:53:34.718Z,7.08
2023-02-13T18:56:06.335Z,7.08
2023-02-13T18:58:38.164Z,7.04
2023-02-13T19:01:09.878Z,7.00
2023-02-13T19:03:41.624Z,7.05
2023-02-13T19:06:13.153Z,7.04
2023-02-13T19:08:45.123Z,7.04
2023-02-13T19:11:16.634Z,6.92
2023-02-13T19:13:48.397Z,6.95
2023-02-13T19:16:19.909Z,6.95
2023-02-13T19:18:53.592Z,6.91
2023-02-13T19:21:25.094Z,6.86
2023-02-13T19:23:56.729Z,6.83
2023-02-13T19:26:28.256Z,6.92
2023-02-13T19:29:00.113Z,6.89
2023-02-13T19:31:31.678Z,6.76
2023-02-13T19:34:08.015Z,6.84
2023-02-13T19:36:39.859Z,6.81
2023-02-13T19:39:11.715Z,6.84
2023-02-13T19:41:44.146Z,6.79
2023-02-13T19:44:15.995Z,6.85
2023-02-13T19:46:47.571Z,6.81
2023-02-13T19:49:21.007Z,6.07
2023-02-13T19:51:54.962Z,6.84
2023-02-13T19:54:26.544Z,6.89
2023-02-13T19:57:01.460Z,6.78
2023-02-13T19:59:33.301Z,6.77
2023-02-13T20:02:04.857Z,6.75
2023-02-13T20:04:36.816Z,6.79
2023-02-13T20:07:08.462Z,6.70
2023-02-13T20:09:40.557Z,5.15
2023-02-13T20:12:12.081Z,6.70
2023-02-13T20:14:43.944Z,6.73
2023-02-13T20:17:15.435Z,6.78
2023-02-13T20:19:47.938Z,6.73
2023-02-13T20:22:19.505Z,6.69
2023-02-13T20:24:51.384Z,6.70
2023-02-13T20:27:22.893Z,6.71
2023-02-13T20:29:59.113Z,6.73
2023-02-13T20:32:38.993Z,6.72
2023-02-13T20:35:10.808Z,6.75
2023-02-13T20:37:42.870Z,6.80
2023-02-13T20:40:14.442Z,6.80
2023-02-13T20:42:45.946Z,6.73
2023-02-13T20:45:17.540Z,6.69
2023-02-13T20:47:49.696Z,6.64
2023-02-13T20:50:21.443Z,6.75
2023-02-13T20:52:52.992Z,6.79
2023-02-13T20:55:25.018Z,6.72
2023-02-13T20:57:56.523Z,6.80
2023-02-13T21:00:28.411Z,6.78
2023-02-13T21:03:00.145Z,6.73
2023-02-13T21:05:32.060Z,6.67
2023-02-13T21:08:03.635Z,6.67
2023-02-13T21:10:35.499Z,6.64
2023-02-13T21:13:07.005Z,6.65
2023-02-13T21:15:38.801Z,6.60
2023-02-13T21:18:10.422Z,6.55
2023-02-13T21:20:42.286Z,6.37
2023-02-13T21:23:13.783Z,6.47
2023-02-13T21:25:45.702Z,6.42
2023-02-13T21:28:17.226Z,6.46
2023-02-13T21:30:49.140Z,6.48
2023-02-13T21:33:20.657Z,6.48
2023-02-13T21:35:52.514Z,6.48
2023-02-13T21:38:24.331Z,6.46
2023-02-13T21:40:56.480Z,6.48
2023-02-13T21:43:28.162Z,6.45
2023-02-13T21:46:00.067Z,6.47
2023-02-13T21:48:31.655Z,6.38
2023-02-13T21:51:03.575Z,6.24
2023-02-13T21:53:35.097Z,6.33
2023-02-13T21:56:06.900Z,6.30
2023-02-13T21:58:38.406Z,6.28
2023-02-13T22:01:17.438Z,6.33
2023-02-13T22:03:59.966Z,5.60
2023-02-13T22:06:31.968Z,6.39
2023-02-13T22:09:03.504Z,6.37
2023-02-13T22:11:35.036Z,6.35
2023-02-13T22:14:07.890Z,6.38
2023-02-13T22:16:39.526Z,6.43
2023-02-13T22:19:11.113Z,6.46
2023-02-13T22:21:42.636Z,6.49
2023-02-13T22:24:14.197Z,6.49
2023-02-13T22:26:45.724Z,6.42
2023-02-13T22:29:18.516Z,6.47
2023-02-13T22:31:50.329Z,6.41
2023-02-13T22:34:22.166Z,6.40
2023-02-13T22:36:53.699Z,6.32
2023-02-13T22:39:25.610Z,6.27
2023-02-13T22:41:57.125Z,6.30
2023-02-13T22:44:28.910Z,6.34
2023-02-13T22:47:00.459Z,6.36
2023-02-13T22:49:32.269Z,6.35
2023-02-13T22:52:03.820Z,6.33
2023-02-13T22:54:35.620Z,6.28
2023-02-13T22:57:07.192Z,6.20
2023-02-13T22:59:40.269Z,6.24
2023-02-13T23:02:11.988Z,6.27
2023-02-13T23:04:44.116Z,6.26
2023-02-13T23:07:18.252Z,6.31
2023-02-13T23:09:50.067Z,6.33
2023-02-13T23:12:37.070Z,6.24
2023-02-13T23:15:08.817Z,6.27
2023-02-13T23:17:59.120Z,6.34
2023-02-13T23:20:30.634Z,6.33
2023-02-13T23:23:04.752Z,6.18
2023-02-13T23:25:36.722Z,6.18
2023-02-13T23:28:08.307Z,6.14
2023-02-13T23:30:40.090Z,6.11
2023-02-13T23:33:11.629Z,6.16
2023-02-13T23:35:43.607Z,6.10
2023-02-13T23:38:15.112Z,6.05
2023-02-13T23:40:46.983Z,5.48
2023-02-13T23:43:18.504Z,6.03
2023-02-13T23:45:50.446Z,5.98
2023-02-13T23:48:22.000Z,6.08
2023-02-13T23:50:53.956Z,6.10
2023-02-13T23:53:25.635Z,6.12
2023-02-13T23:55:57.541Z,6.09
2023-02-13T23:58:29.063Z,6.10
